Zad Elkhir — 3FFX2 — position and weather

sailwx.info

Track history (hours):
 
Tides and Currents Weather Stations Pressure Air Temp Water Temp Dewpoint Dewpoint Depression Visibility Wind Speed Wind Dir Waves Ship Positions

Zad Elkhir

Last reported at 2018-Feb-16 12:53 UTC. Time now 2018-Feb-22 09:31 UTC.
Position N 28°11' W 016°11'.

Length 113 m; draft 4 m.

Type: Cargo ship. MMSI: 304010676.

Date/timePositionNaut miles runAvg speedWind from/ knotsBaromVisibWave heightAir tempDewpointWater temp
2018-Feb-16 12:53N 28°11' W 016°11'614.2
2018-Feb-16 12:29N 28°15' W 016°07'714.1
2018-Feb-16 12:00N 28°20' W 016°01'714.3
2018-Feb-16 11:30N 28°25' W 015°56'714.4
2018-Feb-16 11:00N 28°31' W 015°51'714.3
2018-Feb-16 10:29N 28°37' W 015°46'714.3
2018-Feb-16 10:00N 28°41' W 015°40'714.3
2018-Feb-16 09:30N 28°46' W 015°33'714.3
2018-Feb-16 09:00N 28°51' W 015°27'714.3
2018-Feb-16 08:30N 28°56' W 015°21'714.3
2018-Feb-16 08:00N 29°01' W 015°15'814.4
2018-Feb-16 07:28N 29°06' W 015°08'1414.5
2018-Feb-16 06:31N 29°15' W 014°57'015.0
2018-Feb-16 06:30N 29°15' W 014°57'714.6
2018-Feb-16 06:00N 29°20' W 014°50'714.4
2018-Feb-16 05:30N 29°24' W 014°44'1714.1
2018-Feb-16 04:16N 29°36' W 014°29'513.9
2018-Feb-16 03:56N 29°39' W 014°25'2514.2
2018-Feb-16 02:11N 29°55' W 014°03'214.1
2018-Feb-16 02:00N 29°57' W 014°01'714.2
2018-Feb-16 01:30N 30°02' W 013°55'714.3
2018-Feb-16 00:59N 30°06' W 013°49'714.3
2018-Feb-16 00:30N 30°11' W 013°42'1214.4
2018-Feb-15 23:40N 30°19' W 013°32'214.4
2018-Feb-15 23:30N 30°20' W 013°30'714.2
2018-Feb-15 23:00N 30°25' W 013°24'714.0
2018-Feb-15 22:30N 30°30' W 013°18'814.2
2018-Feb-15 21:55N 30°35' W 013°11'3314.4
2018-Feb-15 19:39N 30°57' W 012°42'213.9
2018-Feb-15 19:30N 30°58' W 012°40'46513.7
2018-Feb-14 09:33N 35°58' W 005°33'111.2
2018-Feb-14 09:29N 35°58' W 005°32'510.8
2018-Feb-14 09:00N 35°59' W 005°26'510.3
2018-Feb-14 08:30N 36°01' W 005°20'510.5
2018-Feb-14 08:00N 36°02' W 005°14'222 5.7
2018-Feb-12 16:55N 37°13' W 000°52'612.5
2018-Feb-12 16:29N 37°19' W 000°55'612.6
2018-Feb-12 15:58N 37°25' W 000°56'612.8
2018-Feb-12 15:30N 37°31' W 000°58'  
2018-Feb-06 14:56N 37°32' W 000°59'511.0
2018-Feb-06 14:30N 37°29' W 000°54'713.8
2018-Feb-06 14:00N 37°29' W 000°45'1013.8
2018-Feb-06 13:18N 37°28' W 000°33'413.6
2018-Feb-06 12:59N 37°28' W 000°28'  
Track history (hours):
 
Tides and Currents Weather Stations Pressure Air Temp Water Temp Dewpoint Dewpoint Depression Visibility Wind Speed Wind Dir Waves Ship Positions

Zad Elkhir

Last reported at 2018-Feb-16 12:53 UTC. Time now 2018-Feb-22 09:31 UTC.
Position N 28°11' W 016°11'.

Length 113 m; draft 4 m.

Type: Cargo ship. MMSI: 304010676.

Date/timePositionNaut miles runAvg speedWind from/ knotsBaromVisibWave heightAir tempDewpointWater temp
2018-Feb-16 12:53N 28°11' W 016°11'614.2
2018-Feb-16 12:29N 28°15' W 016°07'714.1
2018-Feb-16 12:00N 28°20' W 016°01'714.3
2018-Feb-16 11:30N 28°25' W 015°56'714.4
2018-Feb-16 11:00N 28°31' W 015°51'714.3
2018-Feb-16 10:29N 28°37' W 015°46'714.3
2018-Feb-16 10:00N 28°41' W 015°40'714.3
2018-Feb-16 09:30N 28°46' W 015°33'714.3
2018-Feb-16 09:00N 28°51' W 015°27'714.3
2018-Feb-16 08:30N 28°56' W 015°21'714.3
2018-Feb-16 08:00N 29°01' W 015°15'814.4
2018-Feb-16 07:28N 29°06' W 015°08'1414.5
2018-Feb-16 06:31N 29°15' W 014°57'015.0
2018-Feb-16 06:30N 29°15' W 014°57'714.6
2018-Feb-16 06:00N 29°20' W 014°50'714.4
2018-Feb-16 05:30N 29°24' W 014°44'1714.1
2018-Feb-16 04:16N 29°36' W 014°29'513.9
2018-Feb-16 03:56N 29°39' W 014°25'2514.2
2018-Feb-16 02:11N 29°55' W 014°03'214.1
2018-Feb-16 02:00N 29°57' W 014°01'714.2
2018-Feb-16 01:30N 30°02' W 013°55'714.3
2018-Feb-16 00:59N 30°06' W 013°49'714.3
2018-Feb-16 00:30N 30°11' W 013°42'1214.4
2018-Feb-15 23:40N 30°19' W 013°32'214.4
2018-Feb-15 23:30N 30°20' W 013°30'714.2
2018-Feb-15 23:00N 30°25' W 013°24'714.0
2018-Feb-15 22:30N 30°30' W 013°18'814.2
2018-Feb-15 21:55N 30°35' W 013°11'3314.4
2018-Feb-15 19:39N 30°57' W 012°42'213.9
2018-Feb-15 19:30N 30°58' W 012°40'46513.7
2018-Feb-14 09:33N 35°58' W 005°33'111.2
2018-Feb-14 09:29N 35°58' W 005°32'510.8
2018-Feb-14 09:00N 35°59' W 005°26'510.3
2018-Feb-14 08:30N 36°01' W 005°20'510.5
2018-Feb-14 08:00N 36°02' W 005°14'222 5.7
2018-Feb-12 16:55N 37°13' W 000°52'612.5
2018-Feb-12 16:29N 37°19' W 000°55'612.6
2018-Feb-12 15:58N 37°25' W 000°56'612.8
2018-Feb-12 15:30N 37°31' W 000°58'  
2018-Feb-06 14:56N 37°32' W 000°59'511.0
2018-Feb-06 14:30N 37°29' W 000°54'713.8
2018-Feb-06 14:00N 37°29' W 000°45'1013.8
2018-Feb-06 13:18N 37°28' W 000°33'413.6
2018-Feb-06 12:59N 37°28' W 000°28'  

Dump ship's entire track history